sensor_id;sensor_type;location;lat;lon;timestamp;temperature;humidity
38398;DHT22;24179;52.094;4.408;2023-05-16T00:02:17;9.00;99.90
38398;DHT22;24179;52.094;4.408;2023-05-16T00:05:17;9.00;99.90
38398;DHT22;24179;52.094;4.408;2023-05-16T00:08:18;9.00;99.90
38398;DHT22;24179;52.094;4.408;2023-05-16T00:11:18;8.90;99.90
38398;DHT22;24179;52.094;4.408;2023-05-16T00:14:19;8.70;99.90
38398;DHT22;24179;52.094;4.408;2023-05-16T00:17:20;8.70;99.90
38398;DHT22;24179;52.094;4.408;2023-05-16T00:20:21;8.60;99.90
38398;DHT22;24179;52.094;4.408;2023-05-16T00:23:23;8.50;99.90
38398;DHT22;24179;52.094;4.408;2023-05-16T00:26:24;8.50;99.90
38398;DHT22;24179;52.094;4.408;2023-05-16T00:29:25;8.40;99.90
38398;DHT22;24179;52.094;4.408;2023-05-16T00:32:25;8.30;99.90
38398;DHT22;24179;52.094;4.408;2023-05-16T00:35:26;8.30;99.90
38398;DHT22;24179;52.094;4.408;2023-05-16T00:38:27;8.30;99.90
38398;DHT22;24179;52.094;4.408;2023-05-16T00:41:27;8.30;99.90
38398;DHT22;24179;52.094;4.408;2023-05-16T00:44:28;8.30;99.90
38398;DHT22;24179;52.094;4.408;2023-05-16T02:03:09;7.40;99.90
38398;DHT22;24179;52.094;4.408;2023-05-16T02:06:10;7.40;99.90
38398;DHT22;24179;52.094;4.408;2023-05-16T02:09:10;7.50;99.90
38398;DHT22;24179;52.094;4.408;2023-05-16T02:12:11;7.60;99.90
38398;DHT22;24179;52.094;4.408;2023-05-16T02:15:11;7.70;99.90
38398;DHT22;24179;52.094;4.408;2023-05-16T02:18:13;7.70;99.90
38398;DHT22;24179;52.094;4.408;2023-05-16T02:21:14;7.80;99.90
38398;DHT22;24179;52.094;4.408;2023-05-16T02:24:14;7.90;99.90
38398;DHT22;24179;52.094;4.408;2023-05-16T02:27:15;7.80;99.90
38398;DHT22;24179;52.094;4.408;2023-05-16T02:30:15;8.00;99.90
38398;DHT22;24179;52.094;4.408;2023-05-16T02:33:15;8.20;99.90
38398;DHT22;24179;52.094;4.408;2023-05-16T02:36:16;8.30;99.90
38398;DHT22;24179;52.094;4.408;2023-05-16T02:39:16;8.40;99.90
38398;DHT22;24179;52.094;4.408;2023-05-16T02:42:17;8.50;99.90
38398;DHT22;24179;52.094;4.408;2023-05-16T02:45:17;8.40;99.90
38398;DHT22;24179;52.094;4.408;2023-05-16T02:48:18;8.40;99.90
38398;DHT22;24179;52.094;4.408;2023-05-16T02:51:22;8.30;99.90
38398;DHT22;24179;52.094;4.408;2023-05-16T02:54:23;8.20;99.90
38398;DHT22;24179;52.094;4.408;2023-05-16T02:57:23;8.10;99.90
38398;DHT22;24179;52.094;4.408;2023-05-16T03:00:23;8.00;99.90
38398;DHT22;24179;52.094;4.408;2023-05-16T03:03:24;8.10;99.90
38398;DHT22;24179;52.094;4.408;2023-05-16T03:06:25;8.10;99.90
38398;DHT22;24179;52.094;4.408;2023-05-16T03:09:25;8.20;99.90
38398;DHT22;24179;52.094;4.408;2023-05-16T05:05:30;8.40;99.90
38398;DHT22;24179;52.094;4.408;2023-05-16T05:08:31;8.60;99.90
38398;DHT22;24179;52.094;4.408;2023-05-16T05:11:31;8.90;99.90
38398;DHT22;24179;52.094;4.408;2023-05-16T05:14:32;9.10;99.90
38398;DHT22;24179;52.094;4.408;2023-05-16T05:17:33;9.50;99.90
